Liguria — IRKJ — position and weather

sailwx.info

Track history (hours):
 
Tides and Currents Weather Stations Pressure Air Temp Water Temp Dewpoint Dewpoint Depression Visibility Wind Speed Wind Dir Waves Ship Positions

Liguria

Last reported at 2014-Aug-30 23:19 UTC. Time now 2014-Aug-31 00:32 UTC.
Position N 44°18' E 008°29'.

Length 30 m.

Type: Tug. MMSI: 247228500.

Date/timePositionNaut miles runAvg speedWind from/ knotsBaromVisibWave heightAir tempDewpointWater temp
2014-Aug-30 23:19N 44°18' E 008°29'0 0.0
2014-Aug-30 22:28N 44°18' E 008°29'0 0.0
2014-Aug-30 15:25N 44°18' E 008°29'0 0.0
2014-Aug-30 14:25N 44°18' E 008°29'0 0.0
2014-Aug-30 13:25N 44°18' E 008°29'0 0.0
2014-Aug-30 12:13N 44°18' E 008°29'0 0.0
2014-Aug-29 17:26N 44°18' E 008°29'0 0.0
2014-Aug-29 16:05N 44°18' E 008°29'0 0.0
2014-Aug-29 14:14N 44°18' E 008°29'0 0.0
2014-Aug-29 07:26N 44°18' E 008°29'0 0.0
2014-Aug-29 06:29N 44°18' E 008°29'0 0.0
2014-Aug-29 04:05N 44°18' E 008°29'0 0.0
2014-Aug-28 19:21N 44°18' E 008°29'1 1.9
2014-Aug-28 18:33N 44°17' E 008°29'2 0.6
2014-Aug-28 15:26N 44°16' E 008°27'1 0.7
2014-Aug-28 14:13N 44°16' E 008°28'0 0.2
2014-Aug-28 13:31N 44°17' E 008°28'2 0.2
2014-Aug-28 05:18N 44°18' E 008°30'0 0.5
2014-Aug-28 04:24N 44°17' E 008°29'1 0.1
2014-Aug-27 16:18N 44°18' E 008°29'1 1.2
2014-Aug-27 15:32N 44°19' E 008°30'1 0.7
2014-Aug-27 14:28N 44°19' E 008°29'0 0.0
2014-Aug-27 11:31N 44°19' E 008°29'0 0.0
2014-Aug-27 10:28N 44°19' E 008°29'2 2.4
2014-Aug-27 09:26N 44°17' E 008°28'1 0.6
2014-Aug-27 08:07N 44°17' E 008°29'2 2.2
2014-Aug-27 07:24N 44°18' E 008°29'0 0.0
2014-Aug-27 04:06N 44°18' E 008°29'0 0.0
2014-Aug-26 07:20N 44°18' E 008°29'0 0.0
2014-Aug-25 11:04N 44°19' E 008°29'1 1.2
2014-Aug-25 10:28N 44°19' E 008°30'1 0.3
2014-Aug-25 07:29N 44°18' E 008°29'0 0.0
2014-Aug-25 06:20N 44°18' E 008°29'0 0.0
2014-Aug-24 11:27N 44°18' E 008°29'0 0.0
2014-Aug-24 07:27N 44°18' E 008°29'0 0.0
2014-Aug-24 05:21N 44°18' E 008°29'0 0.0
2014-Aug-24 03:27N 44°18' E 008°29'0 0.0
2014-Aug-24 02:33N 44°18' E 008°29'0 0.0
2014-Aug-24 01:33N 44°18' E 008°29'0 0.0
2014-Aug-23 23:27N 44°18' E 008°29'0 0.0
2014-Aug-23 03:31N 44°18' E 008°29'2 2.4
2014-Aug-23 02:33N 44°16' E 008°28'0 0.1
2014-Aug-23 01:33N 44°17' E 008°28'2 2.2
2014-Aug-23 00:31N 44°18' E 008°29'0 0.0
2014-Aug-22 07:32N 44°18' E 008°29'2 2.2
2014-Aug-22 06:26N 44°16' E 008°28'0 0.5
2014-Aug-22 05:32N 44°16' E 008°28'3 0.8
2014-Aug-22 02:23N 44°18' E 008°29'0 0.0
2014-Aug-22 01:32N 44°18' E 008°29'0 0.0
2014-Aug-22 00:20N 44°18' E 008°29'0 0.0
2014-Aug-21 23:32N 44°18' E 008°29'0 0.0
2014-Aug-21 19:17N 44°18' E 008°29'0 0.0
2014-Aug-21 18:32N 44°18' E 008°29'0 0.0
2014-Aug-21 15:32N 44°18' E 008°29'0 0.0
2014-Aug-21 14:29N 44°18' E 008°29'0 0.0
2014-Aug-21 07:31N 44°18' E 008°29'3 2.2
2014-Aug-21 06:16N 44°16' E 008°27'0 0.4
2014-Aug-21 05:26N 44°16' E 008°27'  
Track history (hours):
 
Tides and Currents Weather Stations Pressure Air Temp Water Temp Dewpoint Dewpoint Depression Visibility Wind Speed Wind Dir Waves Ship Positions

Liguria

Last reported at 2014-Aug-30 23:19 UTC. Time now 2014-Aug-31 00:32 UTC.
Position N 44°18' E 008°29'.

Length 30 m.

Type: Tug. MMSI: 247228500.

Date/timePositionNaut miles runAvg speedWind from/ knotsBaromVisibWave heightAir tempDewpointWater temp
2014-Aug-30 23:19N 44°18' E 008°29'0 0.0
2014-Aug-30 22:28N 44°18' E 008°29'0 0.0
2014-Aug-30 15:25N 44°18' E 008°29'0 0.0
2014-Aug-30 14:25N 44°18' E 008°29'0 0.0
2014-Aug-30 13:25N 44°18' E 008°29'0 0.0
2014-Aug-30 12:13N 44°18' E 008°29'0 0.0
2014-Aug-29 17:26N 44°18' E 008°29'0 0.0
2014-Aug-29 16:05N 44°18' E 008°29'0 0.0
2014-Aug-29 14:14N 44°18' E 008°29'0 0.0
2014-Aug-29 07:26N 44°18' E 008°29'0 0.0
2014-Aug-29 06:29N 44°18' E 008°29'0 0.0
2014-Aug-29 04:05N 44°18' E 008°29'0 0.0
2014-Aug-28 19:21N 44°18' E 008°29'1 1.9
2014-Aug-28 18:33N 44°17' E 008°29'2 0.6
2014-Aug-28 15:26N 44°16' E 008°27'1 0.7
2014-Aug-28 14:13N 44°16' E 008°28'0 0.2
2014-Aug-28 13:31N 44°17' E 008°28'2 0.2
2014-Aug-28 05:18N 44°18' E 008°30'0 0.5
2014-Aug-28 04:24N 44°17' E 008°29'1 0.1
2014-Aug-27 16:18N 44°18' E 008°29'1 1.2
2014-Aug-27 15:32N 44°19' E 008°30'1 0.7
2014-Aug-27 14:28N 44°19' E 008°29'0 0.0
2014-Aug-27 11:31N 44°19' E 008°29'0 0.0
2014-Aug-27 10:28N 44°19' E 008°29'2 2.4
2014-Aug-27 09:26N 44°17' E 008°28'1 0.6
2014-Aug-27 08:07N 44°17' E 008°29'2 2.2
2014-Aug-27 07:24N 44°18' E 008°29'0 0.0
2014-Aug-27 04:06N 44°18' E 008°29'0 0.0
2014-Aug-26 07:20N 44°18' E 008°29'0 0.0
2014-Aug-25 11:04N 44°19' E 008°29'1 1.2
2014-Aug-25 10:28N 44°19' E 008°30'1 0.3
2014-Aug-25 07:29N 44°18' E 008°29'0 0.0
2014-Aug-25 06:20N 44°18' E 008°29'0 0.0
2014-Aug-24 11:27N 44°18' E 008°29'0 0.0
2014-Aug-24 07:27N 44°18' E 008°29'0 0.0
2014-Aug-24 05:21N 44°18' E 008°29'0 0.0
2014-Aug-24 03:27N 44°18' E 008°29'0 0.0
2014-Aug-24 02:33N 44°18' E 008°29'0 0.0
2014-Aug-24 01:33N 44°18' E 008°29'0 0.0
2014-Aug-23 23:27N 44°18' E 008°29'0 0.0
2014-Aug-23 03:31N 44°18' E 008°29'2 2.4
2014-Aug-23 02:33N 44°16' E 008°28'0 0.1
2014-Aug-23 01:33N 44°17' E 008°28'2 2.2
2014-Aug-23 00:31N 44°18' E 008°29'0 0.0
2014-Aug-22 07:32N 44°18' E 008°29'2 2.2
2014-Aug-22 06:26N 44°16' E 008°28'0 0.5
2014-Aug-22 05:32N 44°16' E 008°28'3 0.8
2014-Aug-22 02:23N 44°18' E 008°29'0 0.0
2014-Aug-22 01:32N 44°18' E 008°29'0 0.0
2014-Aug-22 00:20N 44°18' E 008°29'0 0.0
2014-Aug-21 23:32N 44°18' E 008°29'0 0.0
2014-Aug-21 19:17N 44°18' E 008°29'0 0.0
2014-Aug-21 18:32N 44°18' E 008°29'0 0.0
2014-Aug-21 15:32N 44°18' E 008°29'0 0.0
2014-Aug-21 14:29N 44°18' E 008°29'0 0.0
2014-Aug-21 07:31N 44°18' E 008°29'3 2.2
2014-Aug-21 06:16N 44°16' E 008°27'0 0.4
2014-Aug-21 05:26N 44°16' E 008°27'  

Dump ship's entire track history